Terminal Aerodrome Forecast
Issued by NWS Chicago, IL

Home | Current Version | Previous Version | Graphics & Text | Print | Product List | Glossary On
Versions: 1 2 3 4 5 6 7 8 9 10 11 12 13 14 15 16 17 18 19 20 21 22 23 24 25 26 27 28 29 30 31 32 33 34 35
975
FTUS43 KLOT 230859 AAB
TAFRFD
TAF AMD
KRFD 230859Z 2309/2406 35006KT 5SM BR OVC008
      TEMPO 2309/2312 2SM -DZ BR OVC005
     FM231600 33007KT P6SM OVC014=

USA.gov is the U.S. government's official web portal to all federal, state and local government web resources and services.